Time;durP1;ratioP1;P1;durP2;ratioP2;P2;SDS_P1;SDS_P2;PMS_P1;PMS_P2;Temp;Humidity;BMP_temperature;BMP_pressure;BME280_temperature;BME280_humidity;BME280_pressure;Samples;Min_cycle;Max_cycle;Signal;HPM_P1;HPM_P2
2023/07/07 00:00:43;;;;;;;13.52;5.20;;;;;;;;;;5027472;28;20022;-75
2023/07/07 00:03:10;;;;;;;7.63;4.60;;;;;;;;;;5037584;28;20083;-76
2023/07/07 00:05:36;;;;;;;13.02;5.95;;;;;;;;;;5023693;28;20152;-76
2023/07/07 00:08:02;;;;;;;14.23;4.82;;;;;;;;;;5022730;28;20028;-76
2023/07/07 00:10:28;;;;;;;13.35;4.80;;;;;;;;;;5022193;28;20317;-77
2023/07/07 00:12:54;;;;;;;8.10;4.15;;;;;;;;;;5023088;28;20407;-76
2023/07/07 00:15:20;;;;;;;14.38;4.65;;;;;;;;;;5021333;28;20100;-76
2023/07/07 00:17:47;;;;;;;12.88;4.25;;;;;;;;;;5025857;28;20036;-76
2023/07/07 00:20:14;;;;;;;10.52;4.07;;;;;;;;;;5027256;28;20029;-76
2023/07/07 00:22:40;;;;;;;7.03;4.20;;;;;;;;;;5032127;28;20059;-76
2023/07/07 00:25:07;;;;;;;7.80;3.92;;;;;;;;;;5037887;28;20026;-76
2023/07/07 00:27:34;;;;;;;7.85;3.60;;;;;;;;;;5041591;28;20029;-76
2023/07/07 00:30:00;;;;;;;6.90;3.22;;;;;;;;;;5044354;28;20033;-77
2023/07/07 00:32:26;;;;;;;8.13;3.10;;;;;;;;;;5042169;28;20464;-76
2023/07/07 00:34:52;;;;;;;4.82;3.13;;;;;;;;;;5041640;28;20044;-77
2023/07/07 00:37:18;;;;;;;8.27;3.60;;;;;;;;;;5032530;28;20391;-76
2023/07/07 00:39:44;;;;;;;6.53;3.60;;;;;;;;;;5022913;28;20028;-76
2023/07/07 00:42:10;;;;;;;7.47;3.53;;;;;;;;;;5026574;28;20257;-76
2023/07/07 00:44:55;;;;;;;7.38;3.08;;;;;;;;;;5025541;28;20087;-76
2023/07/07 00:47:21;;;;;;;6.00;2.93;;;;;;;;;;5027785;28;20092;-76
2023/07/07 00:49:47;;;;;;;5.47;2.72;;;;;;;;;;5041944;28;20021;-78
2023/07/07 00:52:13;;;;;;;4.47;2.70;;;;;;;;;;5025351;28;20566;-76
2023/07/07 00:54:40;;;;;;;3.28;2.38;;;;;;;;;;5021064;28;20097;-76
2023/07/07 00:57:06;;;;;;;4.60;2.40;;;;;;;;;;5022625;28;20060;-77
2023/07/07 00:59:37;;;;;;;4.00;2.30;;;;;;;;;;5017464;28;20102;-76
2023/07/07 01:02:09;;;;;;;3.53;2.70;;;;;;;;;;5028053;28;20033;-76
2023/07/07 01:04:37;;;;;;;10.75;3.58;;;;;;;;;;5018780;28;20049;-75
2023/07/07 01:07:08;;;;;;;5.10;2.75;;;;;;;;;;5026739;28;20021;-76
2023/07/07 01:09:35;;;;;;;2.65;2.00;;;;;;;;;;5026977;28;20029;-76
2023/07/07 01:12:01;;;;;;;3.17;2.25;;;;;;;;;;5021789;28;20029;-76
2023/07/07 01:14:29;;;;;;;5.60;2.47;;;;;;;;;;5025603;28;20071;-76
2023/07/07 01:16:55;;;;;;;6.47;2.25;;;;;;;;;;5024471;28;20037;-77
2023/07/07 01:19:40;;;;;;;6.20;2.50;;;;;;;;;;5023856;28;20092;-75
2023/07/07 01:22:39;;;;;;;3.42;1.83;;;;;;;;;;5022843;28;20518;-76
2023/07/07 01:25:08;;;;;;;4.75;2.53;;;;;;;;;;5011647;28;20060;-77
2023/07/07 01:27:45;;;;;;;3.75;2.10;;;;;;;;;;5025564;28;20048;-76
2023/07/07 01:30:23;;;;;;;3.00;2.25;;;;;;;;;;5024219;28;20022;-76
2023/07/07 01:32:50;;;;;;;6.13;2.92;;;;;;;;;;5040014;28;20038;-76
2023/07/07 01:35:18;;;;;;;3.35;2.17;;;;;;;;;;5029136;28;20064;-76
2023/07/07 01:38:10;;;;;;;3.10;2.00;;;;;;;;;;5024423;28;21856;-76
2023/07/07 01:40:45;;;;;;;5.32;2.20;;;;;;;;;;5008968;28;20108;-76
2023/07/07 01:43:14;;;;;;;2.65;1.83;;;;;;;;;;5026793;28;20682;-76
2023/07/07 01:45:47;;;;;;;3.85;2.20;;;;;;;;;;5029845;28;20117;-75
2023/07/07 01:48:39;;;;;;;2.28;2.03;;;;;;;;;;5024110;28;20025;-77
2023/07/07 01:51:08;;;;;;;3.95;2.00;;;;;;;;;;5024702;28;20044;-76
2023/07/07 01:53:34;;;;;;;3.25;1.80;;;;;;;;;;5029765;28;20024;-76
2023/07/07 01:56:01;;;;;;;3.55;1.80;;;;;;;;;;5028384;28;20459;-76
2023/07/07 01:58:29;;;;;;;5.85;2.20;;;;;;;;;;5032526;28;20068;-76
2023/07/07 02:00:56;;;;;;;2.40;1.70;;;;;;;;;;5024106;28;20037;-76
2023/07/07 02:03:22;;;;;;;3.42;2.45;;;;;;;;;;5023844;28;20044;-75
2023/07/07 02:05:49;;;;;;;3.10;2.20;;;;;;;;;;5031296;28;20025;-76
2023/07/07 02:08:15;;;;;;;2.95;2.35;;;;;;;;;;5030995;28;20127;-76
2023/07/07 02:10:41;;;;;;;4.88;2.20;;;;;;;;;;5031205;28;20345;-76
2023/07/07 02:13:07;;;;;;;4.68;2.13;;;;;;;;;;5030489;28;20029;-77
2023/07/07 02:15:34;;;;;;;5.25;2.80;;;;;;;;;;5028232;28;20059;-77
2023/07/07 02:18:00;;;;;;;5.10;2.50;;;;;;;;;;5025026;28;20037;-76
2023/07/07 02:20:26;;;;;;;4.85;2.53;;;;;;;;;;5028109;28;20026;-77
2023/07/07 02:22:52;;;;;;;4.30;2.60;;;;;;;;;;5028282;28;20026;-76
2023/07/07 02:25:18;;;;;;;3.97;2.20;;;;;;;;;;5026965;28;20077;-76
2023/07/07 02:27:44;;;;;;;4.70;2.80;;;;;;;;;;5029980;28;20028;-75
2023/07/07 02:30:10;;;;;;;5.07;2.25;;;;;;;;;;5028168;28;20026;-76
2023/07/07 02:32:37;;;;;;;3.55;2.50;;;;;;;;;;5029622;28;20009;-76
2023/07/07 02:35:03;;;;;;;3.65;2.10;;;;;;;;;;5025489;28;20029;-76
2023/07/07 02:37:30;;;;;;;5.00;3.17;;;;;;;;;;5027321;28;20025;-77
2023/07/07 02:39:56;;;;;;;5.70;2.28;;;;;;;;;;5027750;28;20163;-75
2023/07/07 02:42:22;;;;;;;6.28;2.20;;;;;;;;;;5021193;28;20099;-75
2023/07/07 02:44:48;;;;;;;6.28;2.10;;;;;;;;;;5025098;28;20030;-75
2023/07/07 02:47:14;;;;;;;3.75;2.00;;;;;;;;;;5027733;28;20033;-76
2023/07/07 02:49:40;;;;;;;2.75;2.00;;;;;;;;;;5027175;28;20672;-75
2023/07/07 02:52:07;;;;;;;4.45;2.45;;;;;;;;;;5015839;28;20033;-75
2023/07/07 02:54:34;;;;;;;2.10;1.90;;;;;;;;;;5024466;28;20034;-75
2023/07/07 02:57:00;;;;;;;1.85;1.65;;;;;;;;;;5027085;28;20045;-76
2023/07/07 02:59:26;;;;;;;1.85;1.70;;;;;;;;;;5034300;28;20091;-76
2023/07/07 03:01:53;;;;;;;3.00;1.80;;;;;;;;;;5034047;28;20032;-75
2023/07/07 03:04:19;;;;;;;2.60;2.25;;;;;;;;;;5034726;28;20045;-76
2023/07/07 03:06:47;;;;;;;2.40;1.55;;;;;;;;;;5033043;28;20025;-75
2023/07/07 03:09:14;;;;;;;1.65;1.48;;;;;;;;;;5029599;28;20494;-76
2023/07/07 03:11:40;;;;;;;3.97;1.98;;;;;;;;;;5029541;28;20071;-76
2023/07/07 03:14:06;;;;;;;1.40;1.30;;;;;;;;;;5025958;28;20029;-75
2023/07/07 03:16:32;;;;;;;1.88;1.60;;;;;;;;;;5022298;28;20030;-76
2023/07/07 03:19:00;;;;;;;1.92;1.58;;;;;;;;;;5024893;28;20519;-76
2023/07/07 03:21:26;;;;;;;1.58;1.48;;;;;;;;;;5036096;28;20037;-76
2023/07/07 03:23:56;;;;;;;2.90;1.70;;;;;;;;;;5029707;28;20053;-76
2023/07/07 03:26:23;;;;;;;1.83;1.40;;;;;;;;;;5036729;28;20888;-75
2023/07/07 03:28:49;;;;;;;1.95;1.48;;;;;;;;;;5018186;28;20029;-76
2023/07/07 03:31:22;;;;;;;1.55;1.45;;;;;;;;;;5024056;28;20072;-76
2023/07/07 03:33:49;;;;;;;1.85;1.58;;;;;;;;;;5022575;28;20601;-76
2023/07/07 03:36:15;;;;;;;2.53;1.60;;;;;;;;;;5031190;28;20538;-76
2023/07/07 03:38:41;;;;;;;1.63;1.40;;;;;;;;;;5027973;28;20033;-77
2023/07/07 03:41:10;;;;;;;3.13;1.70;;;;;;;;;;5030122;28;20025;-76
2023/07/07 03:43:37;;;;;;;2.08;1.42;;;;;;;;;;5033819;28;20038;-77
2023/07/07 03:46:04;;;;;;;1.42;1.33;;;;;;;;;;5041167;28;20024;-76
2023/07/07 03:48:30;;;;;;;3.13;1.60;;;;;;;;;;5048667;28;20087;-76
2023/07/07 03:51:00;;;;;;;1.90;1.50;;;;;;;;;;5040309;28;20091;-76
2023/07/07 03:53:27;;;;;;;1.75;1.65;;;;;;;;;;5037825;28;20101;-76
2023/07/07 03:55:53;;;;;;;1.33;1.23;;;;;;;;;;5042271;28;20033;-77
2023/07/07 03:58:19;;;;;;;2.40;1.88;;;;;;;;;;5031133;28;20080;-76
2023/07/07 04:00:46;;;;;;;3.85;2.00;;;;;;;;;;5025164;28;20034;-77
2023/07/07 04:03:13;;;;;;;1.45;1.35;;;;;;;;;;5029240;28;20033;-76
2023/07/07 04:05:43;;;;;;;2.10;1.48;;;;;;;;;;5027659;28;20056;-77
2023/07/07 04:08:09;;;;;;;2.35;1.40;;;;;;;;;;5027310;28;20476;-77
2023/07/07 04:10:35;;;;;;;2.25;1.45;;;;;;;;;;5032648;28;20451;-76
2023/07/07 04:13:01;;;;;;;1.60;1.50;;;;;;;;;;5025081;28;20029;-76
2023/07/07 04:15:27;;;;;;;1.48;1.30;;;;;;;;;;5042083;28;20036;-76
2023/07/07 04:17:53;;;;;;;1.98;1.55;;;;;;;;;;5023080;28;20033;-76
2023/07/07 04:20:19;;;;;;;1.33;1.23;;;;;;;;;;5026848;28;20038;-76
2023/07/07 04:22:46;;;;;;;2.45;1.85;;;;;;;;;;5032568;28;20336;-75
2023/07/07 04:25:13;;;;;;;13.43;2.33;;;;;;;;;;5021477;28;20025;-76
2023/07/07 04:27:40;;;;;;;3.08;1.92;;;;;;;;;;5024857;28;20041;-76
2023/07/07 04:30:06;;;;;;;3.28;2.17;;;;;;;;;;5026394;28;20047;-75
2023/07/07 04:32:32;;;;;;;2.83;1.70;;;;;;;;;;5018921;28;20452;-77
2023/07/07 04:34:59;;;;;;;2.88;2.05;;;;;;;;;;5021145;28;20033;-77
2023/07/07 04:37:25;;;;;;;4.05;1.90;;;;;;;;;;5020705;28;20112;-76
2023/07/07 04:39:51;;;;;;;2.50;1.92;;;;;;;;;;5032483;28;20037;-76
2023/07/07 04:42:18;;;;;;;3.72;2.13;;;;;;;;;;5030586;28;20044;-75
2023/07/07 04:44:44;;;;;;;3.00;1.90;;;;;;;;;;5027673;28;20030;-76
2023/07/07 04:47:11;;;;;;;2.60;1.90;;;;;;;;;;5043725;28;20078;-76
2023/07/07 04:49:37;;;;;;;2.65;1.70;;;;;;;;;;5027844;28;20021;-76
2023/07/07 04:52:03;;;;;;;3.40;2.10;;;;;;;;;;5032104;28;20032;-77
2023/07/07 04:54:29;;;;;;;5.25;2.10;;;;;;;;;;5025221;28;20116;-76
2023/07/07 04:56:56;;;;;;;2.53;2.10;;;;;;;;;;5019883;28;20519;-76
2023/07/07 04:59:22;;;;;;;3.15;1.98;;;;;;;;;;5021089;28;20450;-76
2023/07/07 05:01:48;;;;;;;2.50;1.85;;;;;;;;;;5037211;28;20090;-76
2023/07/07 05:04:15;;;;;;;3.38;2.35;;;;;;;;;;5032326;28;20492;-76
2023/07/07 05:06:41;;;;;;;4.05;2.00;;;;;;;;;;5026014;28;20022;-75
2023/07/07 05:09:09;;;;;;;4.72;2.15;;;;;;;;;;5043253;28;20104;-76
2023/07/07 05:11:36;;;;;;;3.50;2.40;;;;;;;;;;5021995;28;20056;-76
2023/07/07 05:14:03;;;;;;;2.10;1.90;;;;;;;;;;5022687;28;20053;-77
2023/07/07 05:16:36;;;;;;;4.85;2.13;;;;;;;;;;5017932;28;20117;-76
2023/07/07 05:19:02;;;;;;;2.85;1.73;;;;;;;;;;5028135;28;20060;-77
2023/07/07 05:21:29;;;;;;;3.55;1.85;;;;;;;;;;5021890;28;20449;-76
2023/07/07 05:23:55;;;;;;;6.30;2.00;;;;;;;;;;5028285;28;20360;-76
2023/07/07 05:26:22;;;;;;;6.45;2.05;;;;;;;;;;5020843;28;20036;-76
2023/07/07 05:28:53;;;;;;;6.82;2.45;;;;;;;;;;5027720;28;20202;-76
2023/07/07 05:31:19;;;;;;;4.07;2.15;;;;;;;;;;5022022;28;20026;-76
2023/07/07 05:33:45;;;;;;;2.92;1.85;;;;;;;;;;5024286;28;20108;-76
2023/07/07 05:36:11;;;;;;;2.15;1.85;;;;;;;;;;5023065;28;20025;-77
2023/07/07 05:38:41;;;;;;;2.78;2.22;;;;;;;;;;5019630;28;20078;-76
2023/07/07 05:41:07;;;;;;;4.00;2.17;;;;;;;;;;5021746;28;20060;-77
2023/07/07 05:43:37;;;;;;;2.53;2.33;;;;;;;;;;5022321;28;20076;-75
2023/07/07 05:46:04;;;;;;;3.65;2.47;;;;;;;;;;5020129;28;20025;-76
2023/07/07 05:48:31;;;;;;;2.38;2.10;;;;;;;;;;5023575;28;20415;-76
2023/07/07 05:51:01;;;;;;;4.07;2.15;;;;;;;;;;5035502;28;20037;-76
2023/07/07 05:53:28;;;;;;;3.63;1.95;;;;;;;;;;5033609;28;20109;-75
2023/07/07 05:55:56;;;;;;;2.53;1.73;;;;;;;;;;5032173;28;20021;-76
2023/07/07 05:58:23;;;;;;;3.00;1.75;;;;;;;;;;5025770;28;20029;-76
2023/07/07 06:00:49;;;;;;;3.50;2.13;;;;;;;;;;5029864;28;20025;-78
2023/07/07 06:03:15;;;;;;;3.42;1.60;;;;;;;;;;5028183;28;20394;-76
2023/07/07 06:05:41;;;;;;;2.67;2.00;;;;;;;;;;5028047;28;20042;-76
2023/07/07 06:08:07;;;;;;;2.10;1.80;;;;;;;;;;5024546;28;20029;-76
2023/07/07 06:10:33;;;;;;;3.42;2.17;;;;;;;;;;5024443;28;20033;-76
2023/07/07 06:13:00;;;;;;;4.30;2.03;;;;;;;;;;5036398;28;20496;-76
2023/07/07 06:15:26;;;;;;;3.22;2.20;;;;;;;;;;5026329;28;20034;-77
2023/07/07 06:17:52;;;;;;;4.88;2.30;;;;;;;;;;5026478;28;20040;-76
2023/07/07 06:20:19;;;;;;;4.55;2.58;;;;;;;;;;5033886;28;20025;-76
2023/07/07 06:22:45;;;;;;;5.97;2.67;;;;;;;;;;5032984;28;20025;-76
2023/07/07 06:25:11;;;;;;;5.68;3.08;;;;;;;;;;5025838;28;20026;-76
2023/07/07 06:27:37;;;;;;;6.07;2.83;;;;;;;;;;5027711;28;20028;-76
2023/07/07 06:30:03;;;;;;;6.97;3.40;;;;;;;;;;5026482;28;20021;-77
2023/07/07 06:32:30;;;;;;;8.02;4.05;;;;;;;;;;5028984;28;20033;-76
2023/07/07 06:34:56;;;;;;;12.48;5.50;;;;;;;;;;5040797;28;20029;-77
2023/07/07 06:37:22;;;;;;;10.13;3.97;;;;;;;;;;5025164;28;20029;-76
2023/07/07 06:39:48;;;;;;;11.45;4.70;;;;;;;;;;5024366;28;20123;-76
2023/07/07 06:42:15;;;;;;;10.93;5.00;;;;;;;;;;5027434;28;20087;-76
2023/07/07 06:44:41;;;;;;;15.48;7.15;;;;;;;;;;5023215;28;20021;-76
2023/07/07 06:47:15;;;;;;;12.35;6.15;;;;;;;;;;5028755;28;20503;-76
2023/07/07 06:49:42;;;;;;;15.75;7.00;;;;;;;;;;5013424;28;20053;-76
2023/07/07 06:52:08;;;;;;;15.57;6.07;;;;;;;;;;5027028;28;20031;-77
2023/07/07 06:54:34;;;;;;;12.43;6.80;;;;;;;;;;5025755;28;20025;-76
2023/07/07 06:57:00;;;;;;;13.82;6.35;;;;;;;;;;5036167;28;20048;-76
2023/07/07 06:59:26;;;;;;;15.15;6.13;;;;;;;;;;5038450;28;20037;-76
2023/07/07 07:01:52;;;;;;;10.77;5.00;;;;;;;;;;5046319;28;20029;-75
2023/07/07 07:04:18;;;;;;;9.95;5.57;;;;;;;;;;5047213;28;20213;-76
2023/07/07 07:06:45;;;;;;;12.93;6.05;;;;;;;;;;5045712;28;20021;-76
2023/07/07 07:09:11;;;;;;;14.68;6.78;;;;;;;;;;5040187;28;20029;-76
2023/07/07 07:11:38;;;;;;;14.00;6.18;;;;;;;;;;5049477;28;20117;-74
2023/07/07 07:14:04;;;;;;;16.80;5.85;;;;;;;;;;5032140;28;20037;-75
2023/07/07 07:16:30;;;;;;;11.68;5.85;;;;;;;;;;5030053;28;20118;-75
2023/07/07 07:18:56;;;;;;;12.73;6.32;;;;;;;;;;5026409;28;20146;-74
2023/07/07 07:21:22;;;;;;;10.13;5.53;;;;;;;;;;5022121;28;20041;-75
2023/07/07 07:23:50;;;;;;;13.98;5.45;;;;;;;;;;5021827;28;20040;-75
2023/07/07 07:26:16;;;;;;;12.85;5.60;;;;;;;;;;5043150;28;20109;-76
2023/07/07 07:28:43;;;;;;;17.13;5.93;;;;;;;;;;5026874;28;20474;-76
2023/07/07 07:31:09;;;;;;;13.88;6.40;;;;;;;;;;5026258;28;20040;-76
2023/07/07 07:33:38;;;;;;;12.45;5.32;;;;;;;;;;5026548;28;20053;-76
2023/07/07 07:36:04;;;;;;;11.23;5.70;;;;;;;;;;5034868;28;20103;-75
2023/07/07 07:38:30;;;;;;;13.95;5.47;;;;;;;;;;5025674;28;20052;-77
2023/07/07 07:40:56;;;;;;;10.13;5.85;;;;;;;;;;5025755;28;20441;-77
2023/07/07 07:43:22;;;;;;;12.07;6.18;;;;;;;;;;5028597;28;20034;-75
2023/07/07 07:45:48;;;;;;;11.02;6.45;;;;;;;;;;5023783;28;20202;-75
2023/07/07 07:48:14;;;;;;;16.67;5.03;;;;;;;;;;5026611;28;20033;-75
2023/07/07 07:50:41;;;;;;;13.70;6.18;;;;;;;;;;5033011;28;20025;-76
2023/07/07 07:53:07;;;;;;;11.30;5.35;;;;;;;;;;5032101;28;20028;-74
2023/07/07 07:55:33;;;;;;;10.43;5.10;;;;;;;;;;5030918;28;20031;-75
2023/07/07 07:58:00;;;;;;;14.15;5.80;;;;;;;;;;5027388;28;20957;-76
2023/07/07 08:00:26;;;;;;;15.32;6.75;;;;;;;;;;5024495;28;20037;-76
2023/07/07 08:02:52;;;;;;;14.15;6.20;;;;;;;;;;5021638;28;20439;-76
2023/07/07 08:05:19;;;;;;;13.68;5.70;;;;;;;;;;5028101;28;20560;-75
2023/07/07 08:07:45;;;;;;;9.70;5.97;;;;;;;;;;5025441;28;20048;-75
2023/07/07 08:10:11;;;;;;;12.18;6.25;;;;;;;;;;5023783;28;20026;-75
2023/07/07 08:12:37;;;;;;;14.23;6.15;;;;;;;;;;5027015;28;20021;-77
2023/07/07 08:15:04;;;;;;;9.23;5.60;;;;;;;;;;5023481;28;20588;-77
2023/07/07 08:17:30;;;;;;;8.63;6.13;;;;;;;;;;5029218;28;20467;-78
2023/07/07 08:19:56;;;;;;;11.80;5.43;;;;;;;;;;5020587;28;20033;-76
2023/07/07 08:22:23;;;;;;;9.25;5.40;;;;;;;;;;5026897;28;20234;-77
2023/07/07 08:24:51;;;;;;;11.15;5.55;;;;;;;;;;5026565;28;20198;-77
2023/07/07 08:27:18;;;;;;;10.75;5.43;;;;;;;;;;5031611;28;20029;-78
2023/07/07 08:29:45;;;;;;;10.80;5.35;;;;;;;;;;5028978;28;20498;-77
2023/07/07 08:32:17;;;;;;;12.48;5.50;;;;;;;;;;5035604;28;20096;-77
2023/07/07 08:34:44;;;;;;;11.32;5.18;;;;;;;;;;5033363;28;20030;-77
2023/07/07 08:37:10;;;;;;;10.00;6.10;;;;;;;;;;5042115;28;20030;-74
2023/07/07 08:39:37;;;;;;;8.50;4.90;;;;;;;;;;5042902;28;20036;-77
2023/07/07 08:42:05;;;;;;;11.10;4.72;;;;;;;;;;5029793;28;20053;-77
2023/07/07 08:44:33;;;;;;;9.43;4.60;;;;;;;;;;5027505;28;20522;-77
2023/07/07 08:47:04;;;;;;;10.35;5.25;;;;;;;;;;5044354;28;20041;-75
2023/07/07 08:49:33;;;;;;;8.73;5.03;;;;;;;;;;5035654;28;20033;-75
2023/07/07 08:52:08;;;;;;;11.88;5.10;;;;;;;;;;5030965;28;20021;-75
2023/07/07 08:54:46;;;;;;;11.73;4.65;;;;;;;;;;5032065;28;20109;-76
2023/07/07 08:57:13;;;;;;;10.48;4.50;;;;;;;;;;5032352;28;20112;-76
2023/07/07 09:00:03;;;;;;;;;;;;;;;;;;;;;
2023/07/07 09:02:32;;;;;;;13.10;4.93;;;;;;;;;;5017910;28;20381;-75
2023/07/07 09:05:30;;;;;;;10.05;4.63;;;;;;;;;;5019756;28;20045;-76
2023/07/07 09:08:08;;;;;;;15.05;5.43;;;;;;;;;;5004913;28;20167;-76
2023/07/07 09:10:34;;;;;;;11.90;4.65;;;;;;;;;;5023632;28;20090;-77
2023/07/07 09:13:05;;;;;;;10.32;4.32;;;;;;;;;;5030621;28;20112;-76
2023/07/07 09:15:37;;;;;;;13.40;4.50;;;;;;;;;;5031723;28;20033;-77
2023/07/07 09:18:07;;;;;;;11.57;5.03;;;;;;;;;;5029028;28;20034;-76
2023/07/07 09:20:34;;;;;;;6.45;4.40;;;;;;;;;;5037094;28;20033;-78
2023/07/07 09:23:04;;;;;;;12.57;4.53;;;;;;;;;;5028072;28;20026;-78
2023/07/07 09:25:32;;;;;;;9.20;4.22;;;;;;;;;;5033964;28;20541;-77
2023/07/07 09:28:02;;;;;;;9.43;5.32;;;;;;;;;;5029629;28;20799;-75
2023/07/07 09:30:38;;;;;;;10.55;5.47;;;;;;;;;;5022073;28;20030;-76
2023/07/07 09:33:04;;;;;;;13.23;4.35;;;;;;;;;;5029241;28;20435;-77
2023/07/07 09:35:35;;;;;;;5.57;2.78;;;;;;;;;;5028806;28;20430;-76
2023/07/07 09:38:07;;;;;;;7.10;3.05;;;;;;;;;;5033398;28;20052;-75
2023/07/07 09:40:39;;;;;;;8.43;3.40;;;;;;;;;;5030487;28;20563;-76
2023/07/07 09:43:18;;;;;;;5.57;3.30;;;;;;;;;;5035649;28;20502;-76
2023/07/07 09:45:44;;;;;;;4.90;2.95;;;;;;;;;;5033903;28;20034;-75
2023/07/07 09:48:24;;;;;;;5.22;2.80;;;;;;;;;;5024426;28;20124;-74
2023/07/07 09:51:01;;;;;;;4.53;2.60;;;;;;;;;;5032000;28;20040;-73
2023/07/07 09:53:31;;;;;;;4.05;2.55;;;;;;;;;;5024600;28;20479;-74
2023/07/07 09:55:57;;;;;;;5.88;3.17;;;;;;;;;;5027840;28;20040;-74
2023/07/07 09:58:34;;;;;;;8.60;3.20;;;;;;;;;;5030003;28;20040;-74
2023/07/07 10:01:03;;;;;;;4.20;2.53;;;;;;;;;;5028263;28;20025;-74
2023/07/07 10:03:37;;;;;;;4.88;2.50;;;;;;;;;;5025580;28;20025;-75
2023/07/07 10:06:11;;;;;;;5.68;2.78;;;;;;;;;;5033478;28;20099;-76
2023/07/07 10:08:37;;;;;;;5.85;2.83;;;;;;;;;;5033157;28;20089;-76
2023/07/07 10:11:20;;;;;;;6.18;2.75;;;;;;;;;;5027694;28;20043;-75
2023/07/07 10:13:50;;;;;;;3.70;2.83;;;;;;;;;;5024003;28;20026;-76
2023/07/07 10:16:28;;;;;;;5.65;3.15;;;;;;;;;;5028912;28;20049;-75
2023/07/07 10:18:55;;;;;;;10.85;2.55;;;;;;;;;;5046022;28;20097;-75
2023/07/07 10:21:21;;;;;;;5.05;3.10;;;;;;;;;;5036649;28;20036;-75
2023/07/07 10:23:47;;;;;;;4.75;2.28;;;;;;;;;;5032628;28;20030;-75
2023/07/07 10:26:14;;;;;;;6.10;2.55;;;;;;;;;;5036748;28;20475;-76
2023/07/07 10:28:40;;;;;;;4.95;2.80;;;;;;;;;;5037418;28;20033;-75
2023/07/07 10:31:06;;;;;;;3.92;2.22;;;;;;;;;;5040231;28;20034;-75
2023/07/07 10:33:33;;;;;;;9.05;2.95;;;;;;;;;;5039755;28;20216;-75
2023/07/07 10:36:16;;;;;;;2.67;1.95;;;;;;;;;;5041861;28;20059;-75
2023/07/07 10:38:44;;;;;;;2.90;2.15;;;;;;;;;;5036083;28;20042;-76
2023/07/07 10:41:11;;;;;;;3.10;2.20;;;;;;;;;;5030123;28;20048;-75
2023/07/07 10:43:37;;;;;;;3.38;2.30;;;;;;;;;;5029621;28;20024;-75
2023/07/07 10:46:03;;;;;;;3.15;2.17;;;;;;;;;;5027415;28;20108;-75
2023/07/07 10:48:29;;;;;;;3.95;2.13;;;;;;;;;;5027553;28;20026;-75
2023/07/07 10:51:03;;;;;;;3.97;1.92;;;;;;;;;;5024312;28;20033;-76
2023/07/07 10:53:36;;;;;;;6.60;2.60;;;;;;;;;;5024885;28;20338;-75
2023/07/07 10:56:11;;;;;;;3.58;2.10;;;;;;;;;;5028628;28;20041;-76
2023/07/07 10:58:47;;;;;;;4.85;2.85;;;;;;;;;;5023434;28;20041;-75
2023/07/07 11:01:25;;;;;;;3.85;2.80;;;;;;;;;;5034250;28;20057;-76
2023/07/07 11:03:51;;;;;;;3.25;2.50;;;;;;;;;;5028079;28;20503;-76
2023/07/07 11:06:17;;;;;;;4.55;2.63;;;;;;;;;;5030040;28;20020;-76
2023/07/07 11:08:53;;;;;;;2.22;1.80;;;;;;;;;;5033518;28;20021;-77
2023/07/07 11:11:46;;;;;;;5.07;2.50;;;;;;;;;;5030526;28;20112;-75
2023/07/07 11:14:18;;;;;;;4.55;2.25;;;;;;;;;;5024664;28;20029;-75
2023/07/07 11:16:51;;;;;;;3.22;2.22;;;;;;;;;;5030270;28;20041;-75
2023/07/07 11:19:35;;;;;;;2.67;2.35;;;;;;;;;;5036984;28;20218;-76
2023/07/07 11:22:22;;;;;;;4.80;2.20;;;;;;;;;;5034529;28;20073;-75
2023/07/07 11:24:51;;;;;;;4.82;2.70;;;;;;;;;;5034276;28;20036;-76
2023/07/07 11:27:37;;;;;;;4.30;2.22;;;;;;;;;;5025607;28;20498;-75
2023/07/07 11:30:10;;;;;;;4.85;2.47;;;;;;;;;;5027603;28;20641;-77
2023/07/07 11:32:56;;;;;;;6.53;2.88;;;;;;;;;;5027181;28;20033;-75
2023/07/07 11:35:40;;;;;;;4.75;2.78;;;;;;;;;;5027482;28;20087;-76
2023/07/07 11:38:18;;;;;;;6.20;2.60;;;;;;;;;;5031511;28;20055;-76
2023/07/07 11:40:58;;;;;;;6.68;3.10;;;;;;;;;;5026660;28;20033;-75
2023/07/07 11:43:24;;;;;;;4.07;2.42;;;;;;;;;;5024155;28;20029;-74
2023/07/07 11:46:02;;;;;;;4.82;2.65;;;;;;;;;;5029596;28;20041;-76
2023/07/07 11:48:28;;;;;;;4.07;2.60;;;;;;;;;;5027983;28;20064;-76
2023/07/07 11:50:55;;;;;;;5.28;2.95;;;;;;;;;;5028268;28;20945;-76
2023/07/07 11:53:24;;;;;;;5.72;3.05;;;;;;;;;;5044138;28;20033;-76
2023/07/07 11:56:04;;;;;;;6.80;3.10;;;;;;;;;;5034205;28;20033;-75
2023/07/07 11:58:43;;;;;;;6.03;2.67;;;;;;;;;;5027794;28;20029;-75
2023/07/07 12:01:16;;;;;;;3.80;2.83;;;;;;;;;;5022904;28;20055;-75
2023/07/07 12:03:45;;;;;;;3.92;2.80;;;;;;;;;;5030205;28;20052;-74
2023/07/07 12:06:35;;;;;;;6.82;2.60;;;;;;;;;;5030228;28;20088;-75
2023/07/07 12:09:03;;;;;;;5.63;3.00;;;;;;;;;;5028640;28;20133;-74
2023/07/07 12:11:34;;;;;;;5.03;3.30;;;;;;;;;;5043886;28;20025;-74
2023/07/07 12:14:21;;;;;;;5.82;3.40;;;;;;;;;;5023279;28;20045;-74
2023/07/07 12:16:49;;;;;;;6.30;3.25;;;;;;;;;;5026976;28;20022;-74
2023/07/07 12:19:30;;;;;;;5.82;2.95;;;;;;;;;;5024323;28;20063;-74
2023/07/07 12:21:57;;;;;;;6.40;3.42;;;;;;;;;;5025232;28;20030;-75
2023/07/07 12:24:38;;;;;;;7.13;2.60;;;;;;;;;;5036260;28;20167;-74
2023/07/07 12:27:09;;;;;;;4.15;3.08;;;;;;;;;;5023556;28;20029;-74
2023/07/07 12:29:43;;;;;;;5.68;3.13;;;;;;;;;;5024642;28;20026;-75
2023/07/07 12:32:10;;;;;;;4.65;2.85;;;;;;;;;;5028410;28;20175;-74
2023/07/07 12:34:39;;;;;;;5.78;3.25;;;;;;;;;;5028679;28;20507;-76
2023/07/07 12:37:12;;;;;;;3.78;2.60;;;;;;;;;;5027455;28;20086;-75
2023/07/07 12:39:49;;;;;;;6.07;2.90;;;;;;;;;;5026494;28;20126;-74
2023/07/07 12:42:16;;;;;;;4.68;2.90;;;;;;;;;;5031056;28;20539;-74
2023/07/07 12:44:42;;;;;;;5.82;2.53;;;;;;;;;;5022415;28;20037;-77
2023/07/07 12:47:23;;;;;;;8.30;2.70;;;;;;;;;;5020479;28;20037;-74
2023/07/07 12:49:56;;;;;;;4.60;2.75;;;;;;;;;;5024370;28;20123;-75
2023/07/07 12:52:22;;;;;;;7.45;3.17;;;;;;;;;;5023115;28;20102;-75
2023/07/07 12:54:54;;;;;;;6.45;2.60;;;;;;;;;;5018820;28;20033;-75
2023/07/07 12:57:24;;;;;;;3.70;2.67;;;;;;;;;;5017763;28;20042;-75
2023/07/07 12:59:51;;;;;;;6.35;2.92;;;;;;;;;;5019873;28;20040;-75
2023/07/07 13:02:23;;;;;;;5.72;3.38;;;;;;;;;;5036188;28;20040;-75
2023/07/07 13:04:51;;;;;;;3.80;2.92;;;;;;;;;;5026445;28;20107;-75
2023/07/07 13:07:27;;;;;;;4.45;3.08;;;;;;;;;;5021994;28;20033;-75
2023/07/07 13:09:53;;;;;;;6.03;2.90;;;;;;;;;;5028783;28;20033;-74
2023/07/07 13:12:38;;;;;;;2.72;2.42;;;;;;;;;;5021453;28;20242;-75
2023/07/07 13:15:32;;;;;;;4.05;2.58;;;;;;;;;;5026783;28;20508;-75
2023/07/07 13:17:58;;;;;;;3.72;2.30;;;;;;;;;;5029794;28;20171;-75
2023/07/07 13:20:25;;;;;;;6.82;2.80;;;;;;;;;;5033368;28;20026;-77
2023/07/07 13:23:15;;;;;;;4.60;2.42;;;;;;;;;;5039881;28;20059;-75
2023/07/07 13:25:45;;;;;;;4.50;2.50;;;;;;;;;;5015064;28;20080;-77
2023/07/07 13:28:12;;;;;;;5.38;2.63;;;;;;;;;;5035498;28;20026;-75
2023/07/07 13:30:41;;;;;;;6.80;3.00;;;;;;;;;;5027580;28;20134;-75
2023/07/07 13:33:08;;;;;;;5.95;3.13;;;;;;;;;;5030058;28;20037;-75
2023/07/07 13:35:39;;;;;;;3.55;2.60;;;;;;;;;;5029827;28;20480;-74
2023/07/07 13:38:06;;;;;;;7.15;3.10;;;;;;;;;;5034382;28;20068;-75
2023/07/07 13:40:35;;;;;;;5.82;2.35;;;;;;;;;;5048058;28;20281;-75
2023/07/07 13:43:01;;;;;;;4.95;2.88;;;;;;;;;;5049529;28;20052;-75
2023/07/07 13:45:27;;;;;;;4.60;2.40;;;;;;;;;;5046088;28;20040;-76
2023/07/07 13:47:54;;;;;;;5.95;2.58;;;;;;;;;;5046026;28;20017;-75
2023/07/07 13:50:22;;;;;;;4.57;2.88;;;;;;;;;;5047811;28;20039;-75
2023/07/07 13:52:53;;;;;;;6.32;2.65;;;;;;;;;;5036065;28;20021;-75
2023/07/07 13:55:19;;;;;;;4.88;2.85;;;;;;;;;;5035243;28;20032;-74
2023/07/07 13:57:48;;;;;;;4.20;2.72;;;;;;;;;;5045626;28;20039;-76
2023/07/07 14:00:19;;;;;;;3.70;2.65;;;;;;;;;;5033804;28;20481;-74
2023/07/07 14:02:48;;;;;;;4.95;2.70;;;;;;;;;;5035602;28;20100;-74
2023/07/07 14:05:17;;;;;;;3.90;2.75;;;;;;;;;;5043277;28;20139;-74
2023/07/07 14:07:44;;;;;;;7.30;2.72;;;;;;;;;;5035272;28;20025;-74
2023/07/07 14:10:22;;;;;;;3.15;2.35;;;;;;;;;;5052191;28;20037;-74
2023/07/07 14:12:49;;;;;;;9.13;2.60;;;;;;;;;;5021779;28;20026;-74
2023/07/07 14:15:16;;;;;;;8.10;2.72;;;;;;;;;;5035236;28;20030;-73
2023/07/07 14:17:43;;;;;;;4.28;2.80;;;;;;;;;;5019805;28;20037;-75
2023/07/07 14:20:14;;;;;;;6.93;2.58;;;;;;;;;;5043371;28;20029;-76
2023/07/07 14:22:40;;;;;;;4.45;2.83;;;;;;;;;;5030534;28;20052;-75
2023/07/07 14:25:07;;;;;;;5.53;3.15;;;;;;;;;;5028980;28;20035;-74
2023/07/07 14:27:33;;;;;;;5.13;3.22;;;;;;;;;;5030420;28;20029;-74
2023/07/07 14:30:00;;;;;;;4.38;2.88;;;;;;;;;;5029184;28;20424;-74
2023/07/07 14:32:26;;;;;;;3.97;3.05;;;;;;;;;;5028921;28;20029;-74
2023/07/07 14:34:56;;;;;;;4.45;2.95;;;;;;;;;;5026247;28;20116;-74
2023/07/07 14:37:26;;;;;;;4.07;3.28;;;;;;;;;;5025860;28;20379;-74
2023/07/07 14:39:54;;;;;;;5.57;2.40;;;;;;;;;;5045170;28;20301;-74
2023/07/07 14:42:24;;;;;;;3.83;2.22;;;;;;;;;;5021158;28;20033;-75
2023/07/07 14:44:52;;;;;;;4.78;2.70;;;;;;;;;;5024468;28;20029;-74
2023/07/07 14:47:20;;;;;;;5.93;3.33;;;;;;;;;;5024535;28;20037;-73
2023/07/07 14:49:46;;;;;;;4.22;2.40;;;;;;;;;;5025701;28;20029;-73
2023/07/07 14:52:28;;;;;;;4.57;2.53;;;;;;;;;;5029942;28;20037;-74